LIMP/PMF METAR and TAF weather

Enter ICAO airport designator
Station Type Date Time Source
LIMP METAR 2019/02/17 15:50 UTC NOAA

LIMP 171550Z VRB01KT 6000 NSC 16/03 Q1026


Station Type Date Time Source
LIMP Decoded METAR 2019/02/17 15:50 UTC NOAA

Parma, Italy (LIMP) 44-49-17N 010-17-41E
Feb 17, 2019 - 10:50 AM EST / 2019.02.17 1550 UTC
Wind: Variable at 1 MPH (1 KT):0
Visibility: 3 mile(s):0
Temperature: 60 F (16 C)
Dew Point: 37 F (3 C)
Relative Humidity: 41%
Pressure (altimeter): 30.30 in. Hg (1026 hPa)
ob: LIMP 171550Z VRB01KT 6000 NSC 16/03 Q1026
cycle: 16

Station Type Date Time Source
LIMP TAF 2019/02/17 12:21 UTC NOAA

TAF LIMP 171100Z 1712/1812 VRB05KT 7000 NSC
BECMG 1715/1718 4000 BR
BECMG 1807/1810 7000


Example: see airport list